createdAt,value
2022-08-01T00:04:39.092Z,51.50
2022-08-01T00:09:49.851Z,51.50
2022-08-01T00:14:53.023Z,51.50
2022-08-01T00:19:56.196Z,51.50
2022-08-01T00:25:00.791Z,51.40
2022-08-01T00:30:14.025Z,51.20
2022-08-01T00:35:17.904Z,51.10
2022-08-01T00:40:22.639Z,50.90
2022-08-01T00:45:25.857Z,50.80
2022-08-01T00:50:30.885Z,50.80
2022-08-01T00:55:35.940Z,50.70
2022-08-01T01:00:52.704Z,50.50
2022-08-01T01:06:09.262Z,50.40
2022-08-01T01:11:23.977Z,50.30
2022-08-01T01:16:27.870Z,50.00
2022-08-01T01:21:59.984Z,50.30
2022-08-01T01:27:12.683Z,50.40
2022-08-01T01:32:21.826Z,50.60
2022-08-01T01:37:35.305Z,50.80
2022-08-01T01:42:39.971Z,51.00
2022-08-01T01:47:46.171Z,51.20
2022-08-01T01:52:50.664Z,51.50
2022-08-01T01:57:55.780Z,51.60
2022-08-01T02:03:03.724Z,51.80
2022-08-01T02:08:07.896Z,51.90
2022-08-01T02:13:12.061Z,51.80
2022-08-01T02:18:17.192Z,51.80
2022-08-01T02:23:33.523Z,52.00
2022-08-01T02:28:42.957Z,51.90
2022-08-01T02:33:51.089Z,52.00
2022-08-01T02:38:56.625Z,52.00
2022-08-01T02:44:04.532Z,52.00
2022-08-01T02:49:12.272Z,52.10
2022-08-01T02:54:18.650Z,52.10
2022-08-01T02:59:26.859Z,52.10
2022-08-01T03:04:32.210Z,52.10
2022-08-01T03:09:41.621Z,52.20
2022-08-01T03:14:46.715Z,52.50
2022-08-01T03:19:53.522Z,53.30
2022-08-01T03:24:58.199Z,53.70
2022-08-01T03:30:05.852Z,54.30
2022-08-01T03:35:11.115Z,54.50
2022-08-01T03:40:22.311Z,55.00
2022-08-01T03:45:28.390Z,55.60
2022-08-01T03:50:35.990Z,56.10
2022-08-01T03:55:41.192Z,57.20
2022-08-01T04:00:45.152Z,56.60
2022-08-01T04:05:49.597Z,56.20
2022-08-01T04:10:52.716Z,56.10
2022-08-01T04:15:56.082Z,55.70
2022-08-01T04:21:00.571Z,55.10
2022-08-01T04:26:06.775Z,54.60
2022-08-01T04:31:12.627Z,54.40
2022-08-01T04:36:19.929Z,54.10
2022-08-01T04:41:24.646Z,53.70
2022-08-01T04:51:58.549Z,53.30
2022-08-01T04:57:02.453Z,53.00
2022-08-01T05:02:05.786Z,53.00
2022-08-01T05:07:11.346Z,53.20
2022-08-01T05:12:14.731Z,53.30
2022-08-01T05:17:17.922Z,53.40
2022-08-01T05:22:23.433Z,53.60
2022-08-01T05:27:26.549Z,53.60
2022-08-01T05:32:32.869Z,53.40
2022-08-01T05:37:37.505Z,53.20
2022-08-01T05:42:40.558Z,52.80
2022-08-01T05:47:43.936Z,53.00
2022-08-01T05:52:48.465Z,52.00
2022-08-01T05:57:51.610Z,52.00
2022-08-01T06:02:54.694Z,51.80
2022-08-01T06:07:59.902Z,51.60
2022-08-01T06:13:03.999Z,51.50
2022-08-01T06:18:07.240Z,51.50
2022-08-01T06:23:31.281Z,51.30
2022-08-01T06:28:35.443Z,50.30
2022-08-01T06:33:38.647Z,50.70
2022-08-01T06:38:43.442Z,50.40
2022-08-01T06:43:46.656Z,50.60
2022-08-01T06:48:49.963Z,50.50
2022-08-01T06:53:54.897Z,51.20
2022-08-01T06:59:01.833Z,50.80
2022-08-01T07:04:05.564Z,50.70
2022-08-01T07:09:14.119Z,50.80
2022-08-01T07:14:18.145Z,50.80
2022-08-01T07:19:21.296Z,50.80
2022-08-01T07:24:26.978Z,50.90
2022-08-01T07:29:32.057Z,51.20
2022-08-01T07:34:35.390Z,51.30
2022-08-01T07:39:40.173Z,51.40
2022-08-01T07:44:43.720Z,51.30
2022-08-01T07:49:47.000Z,51.30
2022-08-01T07:54:52.316Z,51.30
2022-08-01T07:59:55.708Z,51.70
2022-08-01T08:04:58.787Z,51.00
2022-08-01T08:10:03.582Z,50.80
2022-08-01T08:15:07.860Z,50.80
2022-08-01T08:20:12.547Z,50.50
2022-08-01T08:25:17.072Z,50.30
2022-08-01T08:30:20.460Z,50.20
2022-08-01T08:35:53.372Z,50.20
2022-08-01T08:40:50.057Z,50.10
2022-08-01T08:45:59.157Z,50.30
2022-08-01T08:51:04.709Z,50.10
2022-08-01T08:56:11.816Z,50.00
2022-08-01T09:01:15.371Z,49.90
2022-08-01T09:06:18.711Z,49.80
2022-08-01T09:11:23.402Z,49.80
2022-08-01T09:16:26.664Z,49.60
2022-08-01T09:21:29.911Z,49.70
2022-08-01T09:26:38.282Z,49.50
2022-08-01T09:31:47.406Z,49.40
2022-08-01T09:36:56.861Z,49.30
2022-08-01T09:42:04.468Z,49.20
2022-08-01T09:47:10.582Z,49.40
2022-08-01T09:52:15.740Z,48.90
2022-08-01T09:57:21.675Z,48.80
2022-08-01T10:02:33.988Z,48.50
2022-08-01T10:07:44.037Z,48.20
2022-08-01T10:12:50.851Z,47.90
2022-08-01T10:17:57.306Z,47.80
2022-08-01T10:23:06.241Z,47.60
2022-08-01T10:28:18.259Z,47.40
2022-08-01T10:33:51.091Z,47.50
2022-08-01T10:38:50.390Z,47.50
2022-08-01T10:43:55.640Z,47.70
2022-08-01T10:49:03.714Z,47.60
2022-08-01T10:54:09.991Z,47.70
2022-08-01T10:59:17.718Z,47.80
2022-08-01T11:04:53.431Z,48.10
2022-08-01T11:10:05.716Z,47.90
2022-08-01T11:15:29.956Z,47.90
2022-08-01T11:20:39.565Z,47.10
2022-08-01T11:26:17.293Z,47.30
2022-08-01T11:31:30.447Z,47.20
2022-08-01T11:36:59.049Z,47.00
2022-08-01T11:42:20.945Z,47.10
2022-08-01T11:47:47.485Z,46.80
2022-08-01T11:52:59.930Z,47.00
2022-08-01T11:58:04.709Z,47.00
2022-08-01T12:03:13.134Z,46.90
2022-08-01T12:08:27.273Z,46.90
2022-08-01T12:13:31.288Z,46.60
2022-08-01T12:18:43.305Z,44.80
2022-08-01T12:23:46.919Z,44.50
2022-08-01T12:28:50.136Z,45.10
2022-08-01T12:33:54.911Z,45.60
2022-08-01T12:39:00.360Z,45.80
2022-08-01T12:44:03.496Z,45.90
2022-08-01T12:49:08.247Z,46.10
2022-08-01T12:54:11.548Z,45.90
2022-08-01T12:59:26.388Z,45.50
2022-08-01T13:04:30.983Z,45.20
2022-08-01T13:09:34.353Z,45.20
2022-08-01T13:14:41.688Z,45.90
2022-08-01T13:19:48.278Z,45.30
2022-08-01T13:24:51.640Z,45.50
2022-08-01T13:29:54.845Z,45.50
2022-08-01T13:35:05.962Z,45.40
2022-08-01T13:40:10.930Z,45.40
2022-08-01T13:45:15.176Z,45.80
2022-08-01T13:50:19.909Z,46.80
2022-08-01T13:55:23.184Z,45.90
2022-08-01T14:00:26.596Z,46.30
2022-08-01T14:05:31.860Z,46.90
2022-08-01T14:10:35.115Z,47.40
2022-08-01T14:15:39.800Z,46.90
2022-08-01T14:20:44.663Z,46.40
2022-08-01T14:26:02.843Z,46.60
2022-08-01T14:31:08.634Z,46.70
2022-08-01T14:36:30.022Z,46.40
2022-08-01T14:41:34.769Z,46.80
2022-08-01T14:46:38.128Z,47.00
2022-08-01T14:52:02.234Z,47.50
2022-08-01T14:57:05.469Z,46.40
2022-08-01T15:02:11.531Z,46.60
2022-08-01T15:07:17.562Z,46.40
2022-08-01T15:12:20.606Z,45.30
2022-08-01T15:17:25.414Z,45.70
2022-08-01T15:22:30.365Z,44.40
2022-08-01T15:27:33.674Z,44.10
2022-08-01T15:32:37.360Z,44.50
2022-08-01T15:37:43.413Z,44.70
2022-08-01T15:42:47.207Z,44.70
2022-08-01T15:47:50.544Z,45.40
2022-08-01T15:52:55.429Z,46.30
2022-08-01T15:57:58.530Z,47.10
2022-08-01T16:03:01.673Z,46.40
2022-08-01T16:08:07.122Z,45.20
2022-08-01T16:13:10.880Z,45.20
2022-08-01T16:18:14.580Z,46.00
2022-08-01T16:23:19.235Z,46.50
2022-08-01T16:28:22.782Z,47.00
2022-08-01T16:33:52.888Z,46.50
2022-08-01T16:38:50.811Z,47.40
2022-08-01T16:43:54.794Z,48.00
2022-08-01T16:48:58.317Z,47.90
2022-08-01T16:54:03.087Z,47.70
2022-08-01T16:59:06.584Z,47.10
2022-08-01T17:04:11.413Z,47.80
2022-08-01T17:09:16.776Z,47.80
2022-08-01T17:14:20.103Z,47.90
2022-08-01T17:19:32.653Z,48.10
2022-08-01T17:24:37.786Z,47.50
2022-08-01T17:29:44.178Z,47.40
2022-08-01T17:34:47.637Z,47.50
2022-08-01T17:39:52.267Z,47.50
2022-08-01T17:44:55.535Z,47.70
2022-08-01T17:50:02.411Z,48.10
2022-08-01T17:55:55.275Z,48.40
2022-08-01T18:00:32.537Z,49.20
2022-08-01T18:05:37.559Z,49.80
2022-08-01T18:10:43.036Z,48.80
2022-08-01T18:15:46.814Z,48.90
2022-08-01T18:20:53.684Z,49.70
2022-08-01T18:26:02.830Z,49.80
2022-08-01T18:31:06.969Z,50.10
2022-08-01T18:36:16.131Z,50.20
2022-08-01T18:41:35.328Z,49.70
2022-08-01T18:46:41.068Z,49.60
2022-08-01T18:51:45.319Z,49.90
2022-08-01T18:56:50.082Z,50.00
2022-08-01T19:01:53.311Z,49.60
2022-08-01T19:06:56.525Z,49.80
2022-08-01T19:12:00.954Z,50.10
2022-08-01T19:17:04.129Z,49.90
2022-08-01T19:22:07.731Z,50.20
2022-08-01T19:27:16.107Z,50.80
2022-08-01T19:32:20.409Z,49.90
2022-08-01T19:37:27.156Z,49.70
2022-08-01T19:42:31.913Z,49.60
2022-08-01T19:47:51.783Z,49.70
2022-08-01T19:52:59.549Z,49.60
2022-08-01T19:58:25.892Z,49.60
2022-08-01T20:03:29.163Z,49.80
2022-08-01T20:08:35.357Z,50.40
2022-08-01T20:13:41.428Z,50.90
2022-08-01T20:18:45.181Z,51.40
2022-08-01T20:23:51.144Z,51.80
2022-08-01T20:28:56.671Z,52.50
2022-08-01T20:34:02.555Z,53.00
2022-08-01T20:39:05.779Z,53.40
2022-08-01T20:44:14.094Z,53.10
2022-08-01T20:49:17.707Z,52.50
2022-08-01T20:54:21.163Z,52.20
2022-08-01T20:59:39.987Z,52.00
2022-08-01T21:05:02.536Z,51.70
2022-08-01T21:10:08.241Z,51.50
2022-08-01T21:15:16.419Z,51.20
2022-08-01T21:20:21.186Z,51.20
2022-08-01T21:25:27.977Z,51.70
2022-08-01T21:30:34.538Z,51.60
2022-08-01T21:35:40.479Z,52.00
2022-08-01T21:40:44.688Z,52.40
2022-08-01T21:45:57.897Z,52.40
2022-08-01T21:51:07.049Z,52.40
2022-08-01T21:56:21.176Z,52.50
2022-08-01T22:01:32.647Z,52.40
2022-08-01T22:06:36.702Z,52.70
2022-08-01T22:12:01.375Z,52.90
2022-08-01T22:17:06.186Z,53.00
2022-08-01T22:22:32.250Z,53.00
2022-08-01T22:28:03.097Z,52.90
2022-08-01T22:33:07.182Z,53.10
2022-08-01T22:38:19.997Z,53.10
2022-08-01T22:43:30.696Z,53.50
2022-08-01T22:48:43.082Z,53.50
2022-08-01T22:53:55.939Z,53.60
2022-08-01T22:59:02.985Z,53.70
2022-08-01T23:04:11.163Z,53.90
2022-08-01T23:09:14.764Z,53.90
2022-08-01T23:14:20.959Z,53.90
2022-08-01T23:19:26.830Z,53.80
2022-08-01T23:24:31.240Z,53.80
2022-08-01T23:29:35.055Z,53.90
2022-08-01T23:34:39.664Z,53.80
2022-08-01T23:39:44.261Z,53.90
2022-08-01T23:44:48.394Z,53.90
2022-08-01T23:49:53.330Z,53.90
2022-08-01T23:54:57.327Z,53.90
